sensor_id;sensor_type;location;lat;lon;timestamp;temperature;humidity
34873;DHT22;21084;51.098;14.506;2022-07-31T01:08:07;10.20;99.90
34873;DHT22;21084;51.098;14.506;2022-07-31T01:10:10;10.60;99.90
34873;DHT22;21084;51.098;14.506;2022-07-31T01:16:29;9.70;99.90
34873;DHT22;21084;51.098;14.506;2022-07-31T01:18:35;10.50;99.90
34873;DHT22;21084;51.098;14.506;2022-07-31T01:25:08;10.30;99.90
34873;DHT22;21084;51.098;14.506;2022-07-31T01:27:21;10.30;99.90
34873;DHT22;21084;51.098;14.506;2022-07-31T01:29:28;10.30;99.90
34873;DHT22;21084;51.098;14.506;2022-07-31T01:31:35;10.30;99.90
34873;DHT22;21084;51.098;14.506;2022-07-31T01:33:45;10.20;99.90
34873;DHT22;21084;51.098;14.506;2022-07-31T01:35:53;10.20;99.90
34873;DHT22;21084;51.098;14.506;2022-07-31T01:38:00;10.20;99.90
34873;DHT22;21084;51.098;14.506;2022-07-31T01:40:09;10.20;99.90
34873;DHT22;21084;51.098;14.506;2022-07-31T01:42:13;9.70;99.90
34873;DHT22;21084;51.098;14.506;2022-07-31T01:44:17;10.20;99.90
34873;DHT22;21084;51.098;14.506;2022-07-31T01:46:22;10.20;99.90
34873;DHT22;21084;51.098;14.506;2022-07-31T01:48:26;10.10;99.90
34873;DHT22;21084;51.098;14.506;2022-07-31T01:50:28;8.60;99.90
34873;DHT22;21084;51.098;14.506;2022-07-31T01:52:45;9.60;99.90
34873;DHT22;21084;51.098;14.506;2022-07-31T01:54:48;10.10;99.90
34873;DHT22;21084;51.098;14.506;2022-07-31T01:56:52;10.10;99.90
34873;DHT22;21084;51.098;14.506;2022-07-31T01:58:55;10.10;99.90
34873;DHT22;21084;51.098;14.506;2022-07-31T02:00:58;10.10;99.90
34873;DHT22;21084;51.098;14.506;2022-07-31T02:03:02;10.10;99.90
34873;DHT22;21084;51.098;14.506;2022-07-31T02:05:11;10.10;99.90
34873;DHT22;21084;51.098;14.506;2022-07-31T02:07:13;10.10;99.90
34873;DHT22;21084;51.098;14.506;2022-07-31T02:09:18;10.10;99.90
34873;DHT22;21084;51.098;14.506;2022-07-31T02:11:20;10.00;99.90
34873;DHT22;21084;51.098;14.506;2022-07-31T02:13:23;10.10;99.90
34873;DHT22;21084;51.098;14.506;2022-07-31T02:15:27;10.00;99.90
34873;DHT22;21084;51.098;14.506;2022-07-31T02:17:29;10.00;99.90
34873;DHT22;21084;51.098;14.506;2022-07-31T02:19:33;10.00;99.90
34873;DHT22;21084;51.098;14.506;2022-07-31T02:21:36;10.00;99.90
34873;DHT22;21084;51.098;14.506;2022-07-31T02:23:38;10.00;99.90
34873;DHT22;21084;51.098;14.506;2022-07-31T02:25:40;10.00;99.90
34873;DHT22;21084;51.098;14.506;2022-07-31T02:27:43;10.00;99.90
34873;DHT22;21084;51.098;14.506;2022-07-31T02:30:01;10.00;99.90
34873;DHT22;21084;51.098;14.506;2022-07-31T02:32:03;10.00;99.90
34873;DHT22;21084;51.098;14.506;2022-07-31T02:34:06;10.00;99.90
34873;DHT22;21084;51.098;14.506;2022-07-31T02:36:10;10.00;99.90
34873;DHT22;21084;51.098;14.506;2022-07-31T02:38:14;9.90;99.90
34873;DHT22;21084;51.098;14.506;2022-07-31T02:40:24;9.90;99.90
34873;DHT22;21084;51.098;14.506;2022-07-31T02:42:26;10.00;99.90
34873;DHT22;21084;51.098;14.506;2022-07-31T02:44:31;9.90;99.90
34873;DHT22;21084;51.098;14.506;2022-07-31T02:46:33;9.90;99.90
34873;DHT22;21084;51.098;14.506;2022-07-31T02:48:36;9.90;99.90
34873;DHT22;21084;51.098;14.506;2022-07-31T02:50:39;9.90;99.90
34873;DHT22;21084;51.098;14.506;2022-07-31T02:52:42;9.90;99.90
34873;DHT22;21084;51.098;14.506;2022-07-31T02:54:44;9.90;99.90
34873;DHT22;21084;51.098;14.506;2022-07-31T02:56:46;10.00;99.90
34873;DHT22;21084;51.098;14.506;2022-07-31T02:58:48;9.90;99.90
34873;DHT22;21084;51.098;14.506;2022-07-31T03:00:57;9.90;99.90
34873;DHT22;21084;51.098;14.506;2022-07-31T03:03:00;10.00;99.90
34873;DHT22;21084;51.098;14.506;2022-07-31T03:05:01;10.00;99.90
34873;DHT22;21084;51.098;14.506;2022-07-31T03:07:04;10.00;99.90
34873;DHT22;21084;51.098;14.506;2022-07-31T03:09:07;10.00;99.90
34873;DHT22;21084;51.098;14.506;2022-07-31T03:11:09;10.00;99.90
34873;DHT22;21084;51.098;14.506;2022-07-31T03:13:11;10.00;99.90
34873;DHT22;21084;51.098;14.506;2022-07-31T03:15:19;10.00;99.90
34873;DHT22;21084;51.098;14.506;2022-07-31T03:17:21;10.00;99.90
34873;DHT22;21084;51.098;14.506;2022-07-31T03:19:39;10.00;99.90
34873;DHT22;21084;51.098;14.506;2022-07-31T03:21:41;10.00;99.90
34873;DHT22;21084;51.098;14.506;2022-07-31T03:23:44;10.00;99.90
34873;DHT22;21084;51.098;14.506;2022-07-31T03:25:48;10.00;99.90
34873;DHT22;21084;51.098;14.506;2022-07-31T03:27:51;10.00;99.90
34873;DHT22;21084;51.098;14.506;2022-07-31T03:29:57;10.00;99.90
34873;DHT22;21084;51.098;14.506;2022-07-31T03:31:59;10.10;99.90
34873;DHT22;21084;51.098;14.506;2022-07-31T03:34:01;10.10;99.90
34873;DHT22;21084;51.098;14.506;2022-07-31T03:36:03;10.10;99.90
34873;DHT22;21084;51.098;14.506;2022-07-31T03:38:05;10.10;99.90
34873;DHT22;21084;51.098;14.506;2022-07-31T03:40:28;10.10;99.90
34873;DHT22;21084;51.098;14.506;2022-07-31T03:42:31;10.00;99.90
34873;DHT22;21084;51.098;14.506;2022-07-31T03:44:34;10.10;99.90
34873;DHT22;21084;51.098;14.506;2022-07-31T03:46:36;10.10;99.90
34873;DHT22;21084;51.098;14.506;2022-07-31T03:48:39;10.00;99.90
34873;DHT22;21084;51.098;14.506;2022-07-31T03:50:41;10.00;99.90
34873;DHT22;21084;51.098;14.506;2022-07-31T03:52:44;10.10;99.90
34873;DHT22;21084;51.098;14.506;2022-07-31T03:54:46;10.10;99.90
34873;DHT22;21084;51.098;14.506;2022-07-31T03:56:49;10.10;99.90
34873;DHT22;21084;51.098;14.506;2022-07-31T03:58:53;10.10;99.90
34873;DHT22;21084;51.098;14.506;2022-07-31T04:00:55;10.20;99.90
34873;DHT22;21084;51.098;14.506;2022-07-31T04:03:05;10.20;99.90
34873;DHT22;21084;51.098;14.506;2022-07-31T04:05:09;10.20;99.90
34873;DHT22;21084;51.098;14.506;2022-07-31T04:07:11;10.20;99.90
34873;DHT22;21084;51.098;14.506;2022-07-31T04:09:13;10.20;99.90
34873;DHT22;21084;51.098;14.506;2022-07-31T04:11:19;10.20;99.90
34873;DHT22;21084;51.098;14.506;2022-07-31T04:13:21;10.30;99.90
34873;DHT22;21084;51.098;14.506;2022-07-31T04:15:25;10.30;99.90
34873;DHT22;21084;51.098;14.506;2022-07-31T04:17:26;10.30;99.90
34873;DHT22;21084;51.098;14.506;2022-07-31T04:19:31;10.30;99.90
34873;DHT22;21084;51.098;14.506;2022-07-31T04:21:33;10.40;99.90
34873;DHT22;21084;51.098;14.506;2022-07-31T04:23:35;10.40;99.90
34873;DHT22;21084;51.098;14.506;2022-07-31T04:25:37;10.50;99.90
34873;DHT22;21084;51.098;14.506;2022-07-31T04:27:39;10.50;99.90
34873;DHT22;21084;51.098;14.506;2022-07-31T04:29:49;10.60;99.90
34873;DHT22;21084;51.098;14.506;2022-07-31T04:31:55;10.70;99.90
34873;DHT22;21084;51.098;14.506;2022-07-31T04:33:57;10.80;99.90
34873;DHT22;21084;51.098;14.506;2022-07-31T04:35:59;10.90;99.90
34873;DHT22;21084;51.098;14.506;2022-07-31T04:38:01;11.00;99.90
34873;DHT22;21084;51.098;14.506;2022-07-31T04:40:03;11.10;99.90
34873;DHT22;21084;51.098;14.506;2022-07-31T04:42:05;11.20;99.90
34873;DHT22;21084;51.098;14.506;2022-07-31T04:44:12;11.30;99.90
34873;DHT22;21084;51.098;14.506;2022-07-31T04:46:13;11.50;99.90
34873;DHT22;21084;51.098;14.506;2022-07-31T04:48:20;11.60;99.90
34873;DHT22;21084;51.098;14.506;2022-07-31T04:50:21;11.80;99.90
34873;DHT22;21084;51.098;14.506;2022-07-31T04:52:23;11.90;99.90
34873;DHT22;21084;51.098;14.506;2022-07-31T04:54:25;12.00;99.90
34873;DHT22;21084;51.098;14.506;2022-07-31T04:56:27;12.00;99.90
34873;DHT22;21084;51.098;14.506;2022-07-31T04:58:29;12.10;99.90
34873;DHT22;21084;51.098;14.506;2022-07-31T05:00:31;12.20;99.90
34873;DHT22;21084;51.098;14.506;2022-07-31T05:02:33;12.30;99.90
34873;DHT22;21084;51.098;14.506;2022-07-31T05:04:36;12.40;99.90
34873;DHT22;21084;51.098;14.506;2022-07-31T05:06:41;12.50;99.90
34873;DHT22;21084;51.098;14.506;2022-07-31T05:08:43;12.60;99.90
34873;DHT22;21084;51.098;14.506;2022-07-31T05:10:45;12.80;99.90
34873;DHT22;21084;51.098;14.506;2022-07-31T05:12:47;12.80;99.90
34873;DHT22;21084;51.098;14.506;2022-07-31T05:14:49;13.00;99.90
34873;DHT22;21084;51.098;14.506;2022-07-31T05:16:50;13.10;99.90
34873;DHT22;21084;51.098;14.506;2022-07-31T05:18:52;13.20;99.90
34873;DHT22;21084;51.098;14.506;2022-07-31T05:20:55;13.30;99.90
34873;DHT22;21084;51.098;14.506;2022-07-31T05:22:57;13.40;99.90
34873;DHT22;21084;51.098;14.506;2022-07-31T05:24:59;13.40;99.90
34873;DHT22;21084;51.098;14.506;2022-07-31T05:27:01;13.60;99.90
34873;DHT22;21084;51.098;14.506;2022-07-31T05:29:04;13.70;99.90
34873;DHT22;21084;51.098;14.506;2022-07-31T05:31:06;13.80;99.90
34873;DHT22;21084;51.098;14.506;2022-07-31T05:33:09;13.90;99.90
34873;DHT22;21084;51.098;14.506;2022-07-31T05:35:12;14.00;99.90
34873;DHT22;21084;51.098;14.506;2022-07-31T05:37:16;14.10;99.90
34873;DHT22;21084;51.098;14.506;2022-07-31T05:39:17;14.30;99.90
34873;DHT22;21084;51.098;14.506;2022-07-31T05:41:19;14.40;99.90
34873;DHT22;21084;51.098;14.506;2022-07-31T05:43:21;14.60;99.90
34873;DHT22;21084;51.098;14.506;2022-07-31T05:45:23;14.70;99.90
34873;DHT22;21084;51.098;14.506;2022-07-31T05:47:25;14.90;99.90
34873;DHT22;21084;51.098;14.506;2022-07-31T05:49:41;15.20;99.90
34873;DHT22;21084;51.098;14.506;2022-07-31T05:51:43;15.50;99.90
34873;DHT22;21084;51.098;14.506;2022-07-31T05:53:47;15.90;99.90
34873;DHT22;21084;51.098;14.506;2022-07-31T05:55:49;16.10;99.90
34873;DHT22;21084;51.098;14.506;2022-07-31T05:57:51;16.30;99.90
34873;DHT22;21084;51.098;14.506;2022-07-31T05:59:53;16.60;99.90
34873;DHT22;21084;51.098;14.506;2022-07-31T06:01:55;16.70;99.90
34873;DHT22;21084;51.098;14.506;2022-07-31T06:03:57;16.90;99.90
34873;DHT22;21084;51.098;14.506;2022-07-31T06:05:59;17.10;99.90
34873;DHT22;21084;51.098;14.506;2022-07-31T06:08:01;17.20;99.90
34873;DHT22;21084;51.098;14.506;2022-07-31T06:10:04;17.20;99.90
34873;DHT22;21084;51.098;14.506;2022-07-31T06:12:07;17.60;99.90
34873;DHT22;21084;51.098;14.506;2022-07-31T06:14:09;17.90;99.90
34873;DHT22;21084;51.098;14.506;2022-07-31T06:16:11;18.10;99.90
34873;DHT22;21084;51.098;14.506;2022-07-31T06:18:13;18.00;99.90
34873;DHT22;21084;51.098;14.506;2022-07-31T06:20:15;18.20;99.90
34873;DHT22;21084;51.098;14.506;2022-07-31T06:22:17;18.60;99.90
34873;DHT22;21084;51.098;14.506;2022-07-31T06:24:18;18.80;99.90
34873;DHT22;21084;51.098;14.506;2022-07-31T06:26:22;18.80;99.90
34873;DHT22;21084;51.098;14.506;2022-07-31T06:28:26;18.90;99.90
34873;DHT22;21084;51.098;14.506;2022-07-31T06:30:48;19.10;99.90
34873;DHT22;21084;51.098;14.506;2022-07-31T06:32:50;18.60;99.90
34873;DHT22;21084;51.098;14.506;2022-07-31T06:34:52;18.90;99.90
34873;DHT22;21084;51.098;14.506;2022-07-31T06:36:54;19.00;99.90
34873;DHT22;21084;51.098;14.506;2022-07-31T06:38:56;19.00;99.90
34873;DHT22;21084;51.098;14.506;2022-07-31T06:40:57;18.90;99.90
34873;DHT22;21084;51.098;14.506;2022-07-31T06:43:01;19.00;99.90
34873;DHT22;21084;51.098;14.506;2022-07-31T06:45:08;19.30;99.90
34873;DHT22;21084;51.098;14.506;2022-07-31T06:47:10;19.30;99.90
34873;DHT22;21084;51.098;14.506;2022-07-31T06:49:17;19.30;99.90
34873;DHT22;21084;51.098;14.506;2022-07-31T06:51:19;19.20;99.90
34873;DHT22;21084;51.098;14.506;2022-07-31T06:53:36;19.40;99.90
34873;DHT22;21084;51.098;14.506;2022-07-31T06:55:38;19.50;99.90
34873;DHT22;21084;51.098;14.506;2022-07-31T06:57:45;20.00;99.90
34873;DHT22;21084;51.098;14.506;2022-07-31T06:59:48;20.40;99.90
34873;DHT22;21084;51.098;14.506;2022-07-31T07:01:50;20.60;99.90
34873;DHT22;21084;51.098;14.506;2022-07-31T07:03:52;20.20;99.90
34873;DHT22;21084;51.098;14.506;2022-07-31T07:05:54;19.80;99.90
34873;DHT22;21084;51.098;14.506;2022-07-31T07:07:56;19.70;99.90
34873;DHT22;21084;51.098;14.506;2022-07-31T07:09:58;19.90;99.90
34873;DHT22;21084;51.098;14.506;2022-07-31T07:11:59;19.40;99.90
34873;DHT22;21084;51.098;14.506;2022-07-31T07:14:01;20.60;99.90
34873;DHT22;21084;51.098;14.506;2022-07-31T07:16:05;21.00;99.90
34873;DHT22;21084;51.098;14.506;2022-07-31T07:18:12;20.90;99.90
34873;DHT22;21084;51.098;14.506;2022-07-31T07:20:14;21.00;99.90
34873;DHT22;21084;51.098;14.506;2022-07-31T07:22:15;21.00;99.90
34873;DHT22;21084;51.098;14.506;2022-07-31T07:24:30;21.10;99.90
34873;DHT22;21084;51.098;14.506;2022-07-31T07:26:32;21.80;99.90
34873;DHT22;21084;51.098;14.506;2022-07-31T07:28:34;21.40;99.90
34873;DHT22;21084;51.098;14.506;2022-07-31T07:30:36;21.90;99.90
34873;DHT22;21084;51.098;14.506;2022-07-31T07:32:39;22.10;99.90
34873;DHT22;21084;51.098;14.506;2022-07-31T07:34:41;22.10;99.90
34873;DHT22;21084;51.098;14.506;2022-07-31T07:36:43;21.90;99.90
34873;DHT22;21084;51.098;14.506;2022-07-31T07:38:45;22.10;99.90
34873;DHT22;21084;51.098;14.506;2022-07-31T07:40:49;22.80;99.90
34873;DHT22;21084;51.098;14.506;2022-07-31T07:42:51;22.60;99.90
34873;DHT22;21084;51.098;14.506;2022-07-31T07:44:53;22.60;99.90
34873;DHT22;21084;51.098;14.506;2022-07-31T07:46:55;23.30;99.90
34873;DHT22;21084;51.098;14.506;2022-07-31T07:48:58;22.80;99.90
34873;DHT22;21084;51.098;14.506;2022-07-31T07:51:00;22.50;99.90
34873;DHT22;21084;51.098;14.506;2022-07-31T07:53:02;23.00;99.90
34873;DHT22;21084;51.098;14.506;2022-07-31T07:55:05;23.40;99.90
34873;DHT22;21084;51.098;14.506;2022-07-31T07:57:07;22.90;99.90
34873;DHT22;21084;51.098;14.506;2022-07-31T07:59:09;22.00;99.90
34873;DHT22;21084;51.098;14.506;2022-07-31T08:01:16;22.60;99.90
34873;DHT22;21084;51.098;14.506;2022-07-31T08:03:18;22.80;99.90
34873;DHT22;21084;51.098;14.506;2022-07-31T08:05:41;23.00;99.90
34873;DHT22;21084;51.098;14.506;2022-07-31T08:07:44;22.80;99.90
34873;DHT22;21084;51.098;14.506;2022-07-31T08:09:45;22.90;99.90
34873;DHT22;21084;51.098;14.506;2022-07-31T08:11:47;23.20;99.90
34873;DHT22;21084;51.098;14.506;2022-07-31T08:13:49;23.90;99.90
34873;DHT22;21084;51.098;14.506;2022-07-31T08:15:52;23.70;99.90
34873;DHT22;21084;51.098;14.506;2022-07-31T08:17:53;24.10;99.90
34873;DHT22;21084;51.098;14.506;2022-07-31T08:19:55;25.00;99.90
34873;DHT22;21084;51.098;14.506;2022-07-31T08:21:58;25.50;99.90
34873;DHT22;21084;51.098;14.506;2022-07-31T08:24:01;25.70;99.90
34873;DHT22;21084;51.098;14.506;2022-07-31T08:26:03;25.10;99.90
34873;DHT22;21084;51.098;14.506;2022-07-31T08:28:07;24.80;99.90
34873;DHT22;21084;51.098;14.506;2022-07-31T08:30:20;24.70;99.90
34873;DHT22;21084;51.098;14.506;2022-07-31T08:32:23;24.90;99.90
34873;DHT22;21084;51.098;14.506;2022-07-31T08:34:25;25.30;99.90
34873;DHT22;21084;51.098;14.506;2022-07-31T08:36:32;25.60;99.90
34873;DHT22;21084;51.098;14.506;2022-07-31T08:38:35;25.90;99.90
34873;DHT22;21084;51.098;14.506;2022-07-31T08:40:37;26.00;99.90
34873;DHT22;21084;51.098;14.506;2022-07-31T08:42:44;25.40;99.90
34873;DHT22;21084;51.098;14.506;2022-07-31T08:44:47;25.70;99.90
34873;DHT22;21084;51.098;14.506;2022-07-31T08:46:49;26.30;99.90
34873;DHT22;21084;51.098;14.506;2022-07-31T08:48:55;26.80;99.90
34873;DHT22;21084;51.098;14.506;2022-07-31T08:50:57;27.50;99.90
34873;DHT22;21084;51.098;14.506;2022-07-31T08:52:59;27.00;99.90
34873;DHT22;21084;51.098;14.506;2022-07-31T08:55:07;26.50;99.90
34873;DHT22;21084;51.098;14.506;2022-07-31T08:57:09;26.20;99.90
34873;DHT22;21084;51.098;14.506;2022-07-31T08:59:13;25.90;99.90
34873;DHT22;21084;51.098;14.506;2022-07-31T09:01:16;26.80;99.90
34873;DHT22;21084;51.098;14.506;2022-07-31T09:03:18;27.60;99.90
34873;DHT22;21084;51.098;14.506;2022-07-31T09:05:20;27.80;99.90
34873;DHT22;21084;51.098;14.506;2022-07-31T09:07:22;28.70;99.90
34873;DHT22;21084;51.098;14.506;2022-07-31T09:09:24;29.00;99.90
34873;DHT22;21084;51.098;14.506;2022-07-31T09:11:49;27.00;99.90
34873;DHT22;21084;51.098;14.506;2022-07-31T09:13:52;27.40;99.90
34873;DHT22;21084;51.098;14.506;2022-07-31T09:16:04;27.20;99.90
34873;DHT22;21084;51.098;14.506;2022-07-31T09:18:15;27.70;99.90
34873;DHT22;21084;51.098;14.506;2022-07-31T09:20:19;28.20;99.90
34873;DHT22;21084;51.098;14.506;2022-07-31T09:22:23;27.90;99.90
34873;DHT22;21084;51.098;14.506;2022-07-31T09:24:27;27.80;99.90
34873;DHT22;21084;51.098;14.506;2022-07-31T09:26:32;26.80;99.90
34873;DHT22;21084;51.098;14.506;2022-07-31T09:28:36;25.60;99.90
34873;DHT22;21084;51.098;14.506;2022-07-31T09:30:38;26.00;99.90
34873;DHT22;21084;51.098;14.506;2022-07-31T09:33:11;26.40;99.90
34873;DHT22;21084;51.098;14.506;2022-07-31T09:35:13;27.20;99.90
34873;DHT22;21084;51.098;14.506;2022-07-31T09:37:17;27.10;99.90
34873;DHT22;21084;51.098;14.506;2022-07-31T09:39:19;28.00;99.90
34873;DHT22;21084;51.098;14.506;2022-07-31T09:41:28;28.10;99.90
34873;DHT22;21084;51.098;14.506;2022-07-31T09:43:55;27.90;99.90
34873;DHT22;21084;51.098;14.506;2022-07-31T09:45:58;29.50;99.90
34873;DHT22;21084;51.098;14.506;2022-07-31T09:48:04;28.90;99.20
34873;DHT22;21084;51.098;14.506;2022-07-31T09:50:07;28.50;98.50
34873;DHT22;21084;51.098;14.506;2022-07-31T09:52:17;27.60;99.90
34873;DHT22;21084;51.098;14.506;2022-07-31T09:54:19;27.90;99.90
34873;DHT22;21084;51.098;14.506;2022-07-31T09:56:29;28.30;98.50
34873;DHT22;21084;51.098;14.506;2022-07-31T09:58:30;28.10;97.40
34873;DHT22;21084;51.098;14.506;2022-07-31T10:00:34;28.40;99.20
34873;DHT22;21084;51.098;14.506;2022-07-31T10:02:38;28.30;97.00
34873;DHT22;21084;51.098;14.506;2022-07-31T10:04:41;28.10;98.00
34873;DHT22;21084;51.098;14.506;2022-07-31T10:06:46;28.60;96.80
34873;DHT22;21084;51.098;14.506;2022-07-31T10:08:48;29.60;95.70
34873;DHT22;21084;51.098;14.506;2022-07-31T10:10:50;29.20;93.40
34873;DHT22;21084;51.098;14.506;2022-07-31T10:12:53;29.20;93.30
34873;DHT22;21084;51.098;14.506;2022-07-31T10:14:58;29.30;93.80
34873;DHT22;21084;51.098;14.506;2022-07-31T10:17:04;28.10;94.40
34873;DHT22;21084;51.098;14.506;2022-07-31T10:19:10;27.80;94.90
34873;DHT22;21084;51.098;14.506;2022-07-31T10:21:15;28.10;93.90
34873;DHT22;21084;51.098;14.506;2022-07-31T10:23:20;28.20;93.00
34873;DHT22;21084;51.098;14.506;2022-07-31T10:25:24;28.20;93.20
34873;DHT22;21084;51.098;14.506;2022-07-31T10:27:28;28.20;94.00
34873;DHT22;21084;51.098;14.506;2022-07-31T10:29:30;29.50;92.90
34873;DHT22;21084;51.098;14.506;2022-07-31T10:31:33;30.60;91.50
34873;DHT22;21084;51.098;14.506;2022-07-31T10:33:37;29.40;90.00
34873;DHT22;21084;51.098;14.506;2022-07-31T10:35:54;28.80;88.50
34873;DHT22;21084;51.098;14.506;2022-07-31T10:38:02;27.90;91.00
34873;DHT22;21084;51.098;14.506;2022-07-31T10:40:12;28.30;92.70
34873;DHT22;21084;51.098;14.506;2022-07-31T10:42:28;27.50;92.60
34873;DHT22;21084;51.098;14.506;2022-07-31T10:44:34;28.90;91.60
34873;DHT22;21084;51.098;14.506;2022-07-31T10:46:39;28.20;91.40
34873;DHT22;21084;51.098;14.506;2022-07-31T10:48:51;29.30;91.10
34873;DHT22;21084;51.098;14.506;2022-07-31T10:51:00;29.70;87.90
34873;DHT22;21084;51.098;14.506;2022-07-31T10:53:09;29.40;90.30
34873;DHT22;21084;51.098;14.506;2022-07-31T10:55:15;28.70;89.30
34873;DHT22;21084;51.098;14.506;2022-07-31T10:57:21;27.90;91.00
34873;DHT22;21084;51.098;14.506;2022-07-31T10:59:27;27.30;92.10
34873;DHT22;21084;51.098;14.506;2022-07-31T11:01:29;27.40;91.40
34873;DHT22;21084;51.098;14.506;2022-07-31T11:03:37;26.90;91.00
34873;DHT22;21084;51.098;14.506;2022-07-31T11:05:51;28.40;91.60
34873;DHT22;21084;51.098;14.506;2022-07-31T11:08:05;28.80;85.70
34873;DHT22;21084;51.098;14.506;2022-07-31T11:10:12;29.00;90.00
34873;DHT22;21084;51.098;14.506;2022-07-31T11:12:17;28.50;89.00
34873;DHT22;21084;51.098;14.506;2022-07-31T11:14:30;28.90;90.10
34873;DHT22;21084;51.098;14.506;2022-07-31T11:16:32;28.00;90.50
34873;DHT22;21084;51.098;14.506;2022-07-31T11:18:34;27.00;91.80
34873;DHT22;21084;51.098;14.506;2022-07-31T11:20:36;26.70;91.10
34873;DHT22;21084;51.098;14.506;2022-07-31T11:22:40;27.80;92.30
34873;DHT22;21084;51.098;14.506;2022-07-31T11:24:52;28.30;91.30
34873;DHT22;21084;51.098;14.506;2022-07-31T11:26:55;29.30;90.40
34873;DHT22;21084;51.098;14.506;2022-07-31T11:28:57;29.00;89.30
34873;DHT22;21084;51.098;14.506;2022-07-31T11:31:19;29.30;89.70
34873;DHT22;21084;51.098;14.506;2022-07-31T11:33:29;28.80;88.10
34873;DHT22;21084;51.098;14.506;2022-07-31T11:35:42;29.00;85.70
34873;DHT22;21084;51.098;14.506;2022-07-31T11:37:49;28.30;87.60
34873;DHT22;21084;51.098;14.506;2022-07-31T11:39:59;28.20;88.70
34873;DHT22;21084;51.098;14.506;2022-07-31T11:42:01;28.00;90.20
34873;DHT22;21084;51.098;14.506;2022-07-31T11:44:04;29.50;89.10
34873;DHT22;21084;51.098;14.506;2022-07-31T11:46:06;30.30;88.30
34873;DHT22;21084;51.098;14.506;2022-07-31T11:48:13;31.40;83.20
34873;DHT22;21084;51.098;14.506;2022-07-31T11:50:16;32.00;81.30
34873;DHT22;21084;51.098;14.506;2022-07-31T11:52:18;33.10;76.60
34873;DHT22;21084;51.098;14.506;2022-07-31T11:54:39;32.90;76.60
34873;DHT22;21084;51.098;14.506;2022-07-31T11:56:41;31.40;76.60
34873;DHT22;21084;51.098;14.506;2022-07-31T11:58:46;30.10;78.40
34873;DHT22;21084;51.098;14.506;2022-07-31T12:00:49;29.30;82.30
34873;DHT22;21084;51.098;14.506;2022-07-31T12:02:51;28.20;83.10
34873;DHT22;21084;51.098;14.506;2022-07-31T12:04:54;28.80;85.80
34873;DHT22;21084;51.098;14.506;2022-07-31T12:06:56;28.60;83.80
34873;DHT22;21084;51.098;14.506;2022-07-31T12:08:59;28.00;84.40
34873;DHT22;21084;51.098;14.506;2022-07-31T12:11:04;27.40;86.00
34873;DHT22;21084;51.098;14.506;2022-07-31T12:13:10;26.00;87.60
34873;DHT22;21084;51.098;14.506;2022-07-31T12:15:19;26.40;90.50
34873;DHT22;21084;51.098;14.506;2022-07-31T12:17:21;26.80;90.20
34873;DHT22;21084;51.098;14.506;2022-07-31T12:19:27;27.60;90.80
34873;DHT22;21084;51.098;14.506;2022-07-31T12:21:30;28.10;92.30
34873;DHT22;21084;51.098;14.506;2022-07-31T12:23:40;28.60;88.20
34873;DHT22;21084;51.098;14.506;2022-07-31T12:25:42;28.70;88.60
34873;DHT22;21084;51.098;14.506;2022-07-31T12:27:51;28.60;88.00
34873;DHT22;21084;51.098;14.506;2022-07-31T12:29:53;28.70;88.90
34873;DHT22;21084;51.098;14.506;2022-07-31T12:31:55;28.90;89.40
34873;DHT22;21084;51.098;14.506;2022-07-31T12:33:57;29.50;88.50
34873;DHT22;21084;51.098;14.506;2022-07-31T12:35:59;28.90;86.60
34873;DHT22;21084;51.098;14.506;2022-07-31T12:38:21;28.10;88.20
34873;DHT22;21084;51.098;14.506;2022-07-31T12:40:41;28.20;90.60
34873;DHT22;21084;51.098;14.506;2022-07-31T12:42:44;28.00;87.30
34873;DHT22;21084;51.098;14.506;2022-07-31T12:44:48;27.40;90.50
34873;DHT22;21084;51.098;14.506;2022-07-31T12:46:50;27.00;89.90
34873;DHT22;21084;51.098;14.506;2022-07-31T12:48:52;26.60;90.80
34873;DHT22;21084;51.098;14.506;2022-07-31T12:50:54;26.50;91.00
34873;DHT22;21084;51.098;14.506;2022-07-31T12:52:58;26.40;90.60
34873;DHT22;21084;51.098;14.506;2022-07-31T12:55:01;26.40;91.10
34873;DHT22;21084;51.098;14.506;2022-07-31T12:57:03;26.30;90.90
34873;DHT22;21084;51.098;14.506;2022-07-31T12:59:06;26.50;91.40
34873;DHT22;21084;51.098;14.506;2022-07-31T13:01:09;26.40;91.70
34873;DHT22;21084;51.098;14.506;2022-07-31T13:03:11;25.90;91.40
34873;DHT22;21084;51.098;14.506;2022-07-31T13:05:13;25.50;92.40
34873;DHT22;21084;51.098;14.506;2022-07-31T13:08:50;25.20;93.50
34873;DHT22;21084;51.098;14.506;2022-07-31T13:10:53;24.90;94.10
34873;DHT22;21084;51.098;14.506;2022-07-31T13:16:28;24.80;95.10
34873;DHT22;21084;51.098;14.506;2022-07-31T13:18:32;24.40;95.90
